METAR Data
IDs: Format: Raw Decoded Include TAF

Data at: 1426 UTC 25 Jun 2019

METAR for:KFME (Fort Meade/Tipton Fl, MD, US)
Text:KFME 251403Z AUTO 29008KT 10SM 25/21 A2990 RMK AO1
Temperature: 25.0°C ( 77°F)
Dewpoint: 21.0°C ( 70°F) [RH = 79%]
Pressure (altimeter):29.90 inches Hg (1012.6 mb)
Winds:from the WNW (290 degrees) at 9 MPH (8 knots; 4.1 m/s)
Visibility:10 or more sm (16+ km)
QC Flag:automated observation with no human augmentation